Scroll down
FLIGHT INFORMATION
United Airlines

UAL1844

At Arrival Gate

KIAH
 KIAD
DATE: 2020-10-24
GATE:  -
GATE DEPARTURE: 20:45
TAKEOFF: 21:03
DATE: 2020-10-24
GATE: D14
LANDING: 23:33
GATE ARRIVAL: 23:38
FLIGHT DATA
Crew: 
Speed: 
455 kts
Altitude: 
39,012 ft
Stage Length: 
1,033.0 nm
Block Time: 
2.8 hrs
Flight Time: 
2.5 hrs
Fuel Used: 
13,391 lb
Cleared Route: KIAH KNTKY PEETY DARTR MUSIQ CLAVN VELCO ENJOY LURIC ORRTH BNA SWAPP GHATS FOUNT TONIO KONGO NEALS BKW POMYK GBERG HHARP BURTT PHOOW HESEE GYSLO BBONE KILMR OTTTO MAAAY RYPIN GIBBZ SUNYJ SIYOB MIKEJ BIGGZ RW01L
TRACK DATA
50,000 ft 1,000 kts
AIRCRAFT INFO AND CUMULATIVE STATS
Aircraft Type: 
B739ERSSW
Registration: 
SELCAL: 
BMAE
MSN/LN: 
33529 / 2916
Operator: 
Total Flights: 
23
Total Block Time: 
67.1 hrs
Total Flight Time: 
57.1 hrs
Total Fuel Time: 
327,129 lb
DATALINK LOG | Newest first | Current as of: 2021-06-22 14:57:11
LABEL SEQUENCE CONTENT Dn/Up
5Z425624 OCT 20 23:42:24z / FLT DECK GOOD / ACF POS GOOD / GRND SERVICES GOOD / MAINT GOOD▼ Dn
QD395323:38 4.3▼ Dn
QC345023:33▼ Dn
2U1403KIAD 241552Z 32004KT 10SM FEW090 BKN110 BKN150 BKN250 20/16 A2997 RMK AO2 SLP147 VIRGA T02000161▲ Up
2S1530KIAD▼ Dn
2U5930KIAD 241452Z 00000KT 10SM FEW050 BKN090 BKN150 BKN250 19/17 A2998 RMK AO2 RAB24E33 SLP148 P0000 60000 T01890167 50005▲ Up
2S0017KIAD▼ Dn
GA3869GATE D14▲ Up
GR3858KIAD 23:33 MAAS 00 YP/UM 00/01 WCHR/S/C 00/00/00 HI-VAL NO DIPL/VIP NO▼ Dn
2U3504KIAD 241452Z 00000KT 10SM FEW050 BKN090 BKN150 BKN250 19/17 A2998 RMK AO2 RAB24E33 SLP148 P0000 60000 T01890167 50005▲ Up
2S3555KIAD▼ Dn
5U3914KIAD 241831Z 32008KT 10SM BKN060 17/16 A2998▲ Up
2U3908KIAD 241352Z 00000KT 10SM SCT045 SCT080 BKN120 BKN200 BKN250 17/16 A2998 RMK AO2 RAE1258 SLP151 P0000 T01720156▲ Up
5S4005KIAD▼ Dn
2S4004KIAD▼ Dn
QB043121:03▼ Dn
2U5314KIAH 241253Z 35009KT 10SM OVC014 12/08 A3011 RMK AO2 SLP194 T01220083▲ Up
2S5421KIAH▼ Dn
QA471420:45 17.8▼ Dn
A34119CLEARED TO KIAD VIA LURIC7 ORRTH BNA J42 BKW GIBBZ3. SQUAWK 4345.▲ Up
Q04008[LINK ACK]▲ Up
Q04008[LINK TEST]▼ Dn
2U2652KIAH 241253Z 35009KT 10SM OVC014 12/08 A3011 RMK AO2 SLP194 T01220083▲ Up
2S2655KIAH▼ Dn
A31053CLEARED TO KIAD VIA LURIC7 ORRTH BNA J42 BKW GIBBZ3. SQUAWK 1610.▲ Up
Q00942[LINK ACK]▲ Up
Q00942[LINK TEST]▼ Dn


AIRCRAFT HISTORY
FLIGHT DATE FLIGHT NO. ORIGIN DESTINATION CLEARED ROUTE BLOCK TIME FLIGHT TIME FUEL USED PILOT
2020-11-27UAL519KDEN KICT KDEN SHAYK ICT KICT1.1 hrs0.9 hrs6,474 lbChemtrails
2020-11-02UAL526KSAN KDEN KSAN JETTI ZZOOO JORRJ GRIDR PIEZZ NSHEE MTBAL EED TBC SHNPS BBRRO LIFTE TBARR MNARK EOLUS EPPIC RDDVL CLFFF KIKME RW16L2.2 hrs1.9 hrs12,175 lbPete L.
2020-10-29UAL321CYYZ KSAN CYYZ FOXEE MAINE CASIO GONER FWA WHETT CADIZ BDF BURKK ALBRT JAVAS LMN PWE GLD ALS RGINA PUMPS GUP ZUN CHEAR PXR GBN JUDTH MOHAK HOGGZ KSAN5.7 hrs5.4 hrs34,325 lbMatthew Gales
2020-10-28UAL888KIAD CYYZ KIAD JERES BEETS MICAH VALLO OGESY FORTT BIGEO WUNDR SFK WOZEE CYYZ1.4 hrs1.2 hrs8,274 lbMatthew Gales
2020-10-24UAL1844KIAH KIAD KIAH KNTKY PEETY DARTR MUSIQ CLAVN VELCO ENJOY LURIC ORRTH BNA SWAPP GHATS FOUNT TONIO KONGO NEALS BKW POMYK GBERG HHARP BURTT PHOOW HESEE GYSLO BBONE KILMR OTTTO MAAAY RYPIN GIBBZ SUNYJ SIYOB MIKEJ BIGGZ RW01L2.8 hrs2.5 hrs13,391 lbNiklas Graefe
2020-10-09UAL1638KPHX KIAH KPHX SPRKY ECLPS KATMN BOXXR PHASE ELP PEQ FUSCO DIESL STOCK FFUEL ARNNE PPUMP PPIPE MPORT GUSHR RW08L2.5 hrs2.1 hrs13,404 lbNiklas Graefe
2020-10-04UAL5720KPDX KPHX KPDX PEGTY KELYY WANOS TOSEH WHAMY IMB KOATA NEERO SLOWN ELY BERYL CORKR TENTS PANTD DUTEY MAIER BRUSR BDWIL ENSEA FBALL PGSKN TLMAN JAMIL RW082.6 hrs2.3 hrs14,574 lbPete L.
2020-10-02UAL2277KIAH KPDX KIAH SCAMM SHAAK BNDTO CUZZZ ZUUUU PUFER PSTUR CRGER CNX BCE REO IMB JOTBA SODDA DUFUR RABBI HHOOD BLRUN SHAFR REEDI RW28R4.2 hrs4 hrs24,809 lbPete L.
2020-09-30UAL4128KRNO KIAH KRNO ZEFFR EPOSE ODLEE PESKE MVA ILC BCE RSK FTI TXO MQP TORNN REFYN OILLL DPLAN SSTAX MPORT DRLLR PTROL DOMNO BYSUN SMOCR PRAYY FESTA RW273.4 hrs3.1 hrs19,144 lbPete L.
2020-09-28UAL5372KDEN KRNO KDEN MUGBE RALFI RAPDS PCKNS ZIMMR CHNGY WAATS BVL FASTE MYBAD WHATZ WADOL UUPPP HOSME WINRZ RW16R2.1 hrs1.7 hrs11,471 lbPete L.
2020-09-27UAL3522KAUS KDEN 2.1 hrs1.8 hrs12,399 lbPete L.
2020-09-27UAL3522KIDA KAUS KIDA IDA BPI OCS EKR HBU CIM TXO LBB UCOKA DILLO SZAGI LAIKS BOYZZ CRLOS HOUKM RW17R2.6 hrs2.3 hrs14,079 lbPete L.
2020-09-21UAL5925KMSP KIDA KMSP INUNE DWN ABR DPR CZI DNW LUDIC RW032.5 hrs2.3 hrs14,588 lbPete L.
2020-09-19UAL5981KSJC KMSP KSJC 30R18 SUNOL LIN BAM LCU BPI JUGIV HIKOX JASTI UFFDA ERICX TORGY OFSON HMBRG CONIA SPUKI KRUGG RW12R3.2 hrs3 hrs19,069 lbPete L.
2020-09-17UAL5348KDFW KSJC KDFW HAZKL TULUY HUNNT TYGGR DBLSS HRPER HULZE TXO MIERA ABQ LORAT GUP DILCO HMFRY BAVPE CUTRO PGS BLD BTY RUSME CANDA STUBL RAZRR OUCHH NIKKT SEKKO SCOPR KLIDE RW30R3.4 hrs3.2 hrs19,772 lbPete L.
2020-09-14UAL5161KGPI KDFW 3.4 hrs3.1 hrs19,267 lbPete L.
2020-09-14UAL5161KSFO KGPI KSFO TYDYE TRUKN GRTFL RBL LKV BKE MLP FIKAB RW022 hrs1.8 hrs11,632 lbPete L.
2020-09-13UAL1561KDEN KSFO KDEN FOAMS IPALE MOLSN BULLT COORZ VOAXA ELLFF WEEMN MANRD TRALP GDGET CRLES KATTS RUMPS OAL INYOE DYAMD LAANE ALWYS FLOWZ CEDES FRELY ARCHI RW28R2.3 hrs2 hrs13,082 lbPete L.
2020-09-06UAL720KSFO KDEN KSFO TYDYE TRUKN HYPEE MOGEE MACUS MCORD SLOWN FASTE BVL TCH KAMPR GRAYZ BYYKE BIVVY VESTL LONGZ FLNEL DORKE HLMUT SKEWD LEKEE XCUTV CAPTJ FUZZZ RW262.6 hrs2.1 hrs13,483 lbNiklas Graefe
2020-07-30UAL1561KDEN KSFO KDEN FOAMS IPALE MOLSN BULLT COORZ VOAXA ELLFF WEEMN MANRD TRALP GDGET CRLES KATTS RUMPS INYOE DYAMD LAANE ALWYS FLOWZ CEDES FRELY ARCHI RW28R2.4 hrs2.2 hrs14,704 lbDan Downs
2020-07-20UAL720KLAS KDEN KLAS STAAV TRALR NICLE BUMMP KDEN1.9 hrs1.4 hrs10,450 lbJames W.
2020-07-19UAL5820KGPI KLAS KGPI DAACE PYGMY KILLY ZAMON EYCHO FIKAB LKT BYI BVL MPIRE KSINO ZIGGG SITEE ARVDD PRINO RW26L2.1 hrs1.9 hrs11,956 lbPete L.
2020-07-16UAL6589KFLL KGPI KFLL JUMAR HAPOR SECOR TICOG GILBI THNDR SRQ PIE CEW MEI LIT ICT HCT HANKI BFF BIL GTF SKOTT RW208.6 hrs5 hrs31,100 lbPete L.